Time;durP1;ratioP1;P1;durP2;ratioP2;P2;SDS_P1;SDS_P2;PMS_P1;PMS_P2;Temp;Humidity;BMP_temperature;BMP_pressure;BME280_temperature;BME280_humidity;BME280_pressure;Samples;Min_cycle;Max_cycle;Signal;HPM_P1;HPM_P2
2023/01/14 00:01:45;;;;;;;3.40;2.20;;;6.90;99.90;;;;;;5074676;28;20411;-69
2023/01/14 00:04:11;;;;;;;5.10;2.37;;;6.80;99.90;;;;;;5056334;28;20417;-69
2023/01/14 00:06:36;;;;;;;4.57;2.33;;;6.80;99.90;;;;;;5074577;28;20170;-69
2023/01/14 00:09:09;;;;;;;8.73;3.47;;;6.80;99.90;;;;;;5074218;28;20212;-69
2023/01/14 00:11:48;;;;;;;4.90;2.07;;;6.60;99.90;;;;;;5074436;28;20571;-69
2023/01/14 00:14:17;;;;;;;5.00;2.57;;;6.50;99.90;;;;;;5073494;28;20519;-70
2023/01/14 00:16:44;;;;;;;7.10;2.10;;;6.50;99.90;;;;;;5074018;28;20400;-69
2023/01/14 00:19:10;;;;;;;6.20;2.20;;;6.70;99.90;;;;;;5073826;28;20444;-69
2023/01/14 00:21:36;;;;;;;7.23;2.20;;;6.70;99.90;;;;;;5074021;28;20550;-69
2023/01/14 00:24:02;;;;;;;8.23;2.03;;;6.60;99.90;;;;;;5074223;28;20411;-69
2023/01/14 00:26:28;;;;;;;3.10;2.40;;;6.60;99.90;;;;;;5073959;28;20789;-69
2023/01/14 00:28:54;;;;;;;2.73;1.73;;;6.60;99.90;;;;;;5073274;28;20466;-69
2023/01/14 00:31:25;;;;;;;3.17;2.17;;;6.60;99.90;;;;;;5074206;28;20207;-69
2023/01/14 00:33:51;;;;;;;4.97;2.50;;;6.60;99.90;;;;;;5073863;28;20875;-70
2023/01/14 00:36:18;;;;;;;6.00;2.17;;;6.50;99.90;;;;;;5075183;28;20412;-69
2023/01/14 00:38:44;;;;;;;3.80;2.20;;;6.50;99.90;;;;;;5075262;28;20198;-69
2023/01/14 00:41:12;;;;;;;6.17;3.40;;;6.50;99.90;;;;;;5066564;28;20431;-70
2023/01/14 00:43:46;;;;;;;6.70;2.70;;;6.40;99.90;;;;;;5074161;28;20584;-69
2023/01/14 00:46:15;;;;;;;8.37;2.43;;;6.30;99.90;;;;;;5074649;28;20475;-69
2023/01/14 00:48:42;;;;;;;5.17;1.97;;;6.20;99.90;;;;;;5073730;28;20515;-69
2023/01/14 00:51:08;;;;;;;3.60;1.73;;;6.20;99.90;;;;;;5073847;28;20450;-69
2023/01/14 00:53:35;;;;;;;7.97;2.97;;;6.20;99.90;;;;;;5073576;28;20444;-69
2023/01/14 00:56:01;;;;;;;5.90;2.83;;;6.20;99.90;;;;;;5074000;28;20408;-70
2023/01/14 00:58:26;;;;;;;6.83;2.53;;;6.20;99.90;;;;;;5073613;28;20493;-70
2023/01/14 01:00:53;;;;;;;8.90;2.70;;;6.00;99.90;;;;;;5073920;28;20162;-70
2023/01/14 01:03:20;;;;;;;4.13;1.70;;;6.10;99.90;;;;;;5073686;28;20652;-70
2023/01/14 01:05:46;;;;;;;3.67;2.10;;;6.10;99.90;;;;;;5073988;28;20816;-70
2023/01/14 01:08:14;;;;;;;6.60;2.03;;;6.20;99.90;;;;;;5073530;28;20424;-70
2023/01/14 01:10:42;;;;;;;4.73;2.40;;;6.30;99.90;;;;;;5072980;28;20510;-70
2023/01/14 01:13:08;;;;;;;4.30;2.07;;;6.30;99.90;;;;;;5069026;28;20495;-70
2023/01/14 01:15:35;;;;;;;5.73;2.13;;;6.30;99.90;;;;;;5053190;28;20920;-69
2023/01/14 01:18:02;;;;;;;6.63;2.37;;;6.20;99.90;;;;;;5053501;28;20163;-70
2023/01/14 01:20:27;;;;;;;3.03;2.20;;;6.20;99.90;;;;;;5053310;28;20406;-69
2023/01/14 01:22:53;;;;;;;6.10;2.57;;;6.20;99.90;;;;;;5053334;28;20401;-70
2023/01/14 01:25:18;;;;;;;5.97;2.10;;;6.10;99.90;;;;;;5053586;28;20175;-70
2023/01/14 01:27:44;;;;;;;3.93;1.73;;;6.00;99.90;;;;;;5035080;28;20171;-69
2023/01/14 01:30:10;;;;;;;5.40;2.03;;;6.00;99.90;;;;;;5035301;28;20644;-70
2023/01/14 01:32:36;;;;;;;5.93;2.23;;;5.90;99.90;;;;;;5035164;28;20269;-70
2023/01/14 01:35:01;;;;;;;4.40;2.00;;;5.90;99.90;;;;;;5053446;28;20405;-70
2023/01/14 01:37:28;;;;;;;8.70;2.07;;;6.00;99.90;;;;;;5035194;28;20660;-70
2023/01/14 01:39:54;;;;;;;5.10;2.30;;;5.90;99.90;;;;;;5052658;28;20213;-70
2023/01/14 01:42:23;;;;;;;5.97;2.20;;;5.80;99.90;;;;;;5062961;28;20420;-70
2023/01/14 01:44:48;;;;;;;4.10;2.00;;;5.90;99.90;;;;;;5073066;28;20408;-70
2023/01/14 01:47:15;;;;;;;5.37;1.83;;;5.90;99.90;;;;;;5054982;28;20409;-69
2023/01/14 01:49:42;;;;;;;2.83;1.90;;;5.80;99.90;;;;;;5072916;28;20182;-69
2023/01/14 01:52:29;;;;;;;3.67;2.00;;;5.90;99.90;;;;;;5071535;28;20420;-69
2023/01/14 01:55:04;;;;;;;6.83;2.37;;;5.80;99.90;;;;;;5073175;28;20415;-69
2023/01/14 01:57:30;;;;;;;6.07;2.43;;;5.80;99.90;;;;;;5071178;28;20404;-70
2023/01/14 02:00:00;;;;;;;11.57;2.60;;;5.70;99.90;;;;;;5072712;28;20416;-69
2023/01/14 02:02:28;;;;;;;8.83;2.03;;;5.60;99.90;;;;;;5072740;28;20401;-69
2023/01/14 02:04:53;;;;;;;6.47;2.50;;;5.60;99.90;;;;;;5073059;28;20430;-69
2023/01/14 02:07:22;;;;;;;13.37;3.67;;;5.60;99.90;;;;;;5072742;28;20795;-69
2023/01/14 02:09:52;;;;;;;5.40;1.83;;;5.60;99.90;;;;;;5072697;28;20554;-69
2023/01/14 02:12:36;;;;;;;5.07;2.00;;;5.60;99.90;;;;;;5072505;28;20403;-69
2023/01/14 02:15:22;;;;;;;3.17;1.80;;;5.70;99.90;;;;;;5072965;28;20534;-69
2023/01/14 02:18:01;;;;;;;4.90;2.30;;;5.70;99.90;;;;;;5073128;28;20446;-69
2023/01/14 02:20:40;;;;;;;10.13;1.97;;;6.00;99.90;;;;;;5072921;28;20405;-70
2023/01/14 02:23:15;;;;;;;3.30;1.90;;;6.10;99.90;;;;;;5074664;28;20894;-69
2023/01/14 02:26:04;;;;;;;2.43;1.60;;;6.10;99.90;;;;;;5076999;28;20411;-69
2023/01/14 02:28:54;;;;;;;8.47;2.20;;;6.10;99.90;;;;;;5075896;28;20436;-70
2023/01/14 02:31:39;;;;;;;4.97;2.00;;;6.10;99.90;;;;;;5076578;28;20467;-69
2023/01/14 02:34:21;;;;;;;3.10;1.80;;;6.00;99.90;;;;;;5076724;28;20435;-70
2023/01/14 02:36:58;;;;;;;3.60;2.00;;;6.00;99.90;;;;;;5076431;28;20494;-70
2023/01/14 02:39:35;;;;;;;3.40;2.07;;;6.00;99.90;;;;;;5076173;28;20443;-69
2023/01/14 02:45:05;;;;;;;5.33;2.47;;;6.00;99.90;;;;;;5057904;28;20531;-70
2023/01/14 02:47:33;;;;;;;4.53;2.30;;;5.90;99.90;;;;;;5056278;28;20392;-70
2023/01/14 02:50:00;;;;;;;7.43;2.30;;;5.90;99.90;;;;;;5055884;28;20474;-70
2023/01/14 02:52:26;;;;;;;8.07;1.77;;;5.90;99.90;;;;;;5038365;28;20431;-70
2023/01/14 02:54:53;;;;;;;5.73;1.70;;;5.90;99.90;;;;;;5054839;28;20448;-70
2023/01/14 02:57:39;;;;;;;6.63;2.00;;;6.00;99.90;;;;;;5056260;28;20184;-70
2023/01/14 03:00:15;;;;;;;7.70;2.70;;;6.00;99.90;;;;;;5063124;28;20432;-70
2023/01/14 03:02:55;;;;;;;6.17;2.50;;;6.00;99.90;;;;;;5076196;28;20740;-70
2023/01/14 03:05:27;;;;;;;5.67;1.90;;;6.00;99.90;;;;;;5076114;28;20384;-70
2023/01/14 03:07:57;;;;;;;5.53;2.10;;;6.00;99.90;;;;;;5074051;28;20510;-70
2023/01/14 03:10:37;;;;;;;6.73;2.00;;;6.00;99.90;;;;;;5076018;28;20396;-70
2023/01/14 03:13:13;;;;;;;5.93;1.70;;;6.00;99.90;;;;;;5076167;28;20432;-70
2023/01/14 03:15:50;;;;;;;8.73;2.03;;;6.10;99.90;;;;;;5069831;28;20460;-70
2023/01/14 03:18:50;;;;;;;6.27;2.00;;;6.00;99.90;;;;;;5035971;28;20467;-70
2023/01/14 03:21:20;;;;;;;5.93;2.27;;;6.00;99.90;;;;;;5035884;28;20394;-70
2023/01/14 03:24:18;;;;;;;5.83;1.70;;;6.00;99.90;;;;;;5057685;28;20419;-70
2023/01/14 03:26:47;;;;;;;4.80;1.70;;;6.00;99.90;;;;;;5058231;28;20453;-70
2023/01/14 03:29:19;;;;;;;4.03;1.90;;;6.00;99.90;;;;;;5075591;28;20428;-70
2023/01/14 03:31:52;;;;;;;7.17;1.83;;;6.00;99.90;;;;;;5073689;28;20477;-68
2023/01/14 03:34:24;;;;;;;4.40;1.70;;;6.10;99.90;;;;;;5074973;28;20519;-70
2023/01/14 03:36:51;;;;;;;4.03;1.80;;;6.10;99.90;;;;;;5075782;28;20798;-70
2023/01/14 03:39:21;;;;;;;5.60;2.43;;;6.10;99.90;;;;;;5075019;28;20436;-70
2023/01/14 03:45:05;;;;;;;2.60;1.60;;;5.90;99.90;;;;;;5075731;28;20381;-69
2023/01/14 03:47:34;;;;;;;2.00;1.50;;;6.00;99.90;;;;;;5057222;28;20416;-71
2023/01/14 03:50:12;;;;;;;6.00;1.60;;;6.10;99.90;;;;;;5035020;28;20429;-70
2023/01/14 03:52:59;;;;;;;4.10;2.07;;;6.10;99.90;;;;;;5035928;28;20888;-69
2023/01/14 03:55:37;;;;;;;4.40;1.67;;;6.10;99.90;;;;;;5035063;28;20422;-70
2023/01/14 03:58:14;;;;;;;6.20;1.57;;;6.00;99.90;;;;;;5070618;28;20427;-70
2023/01/14 04:00:47;;;;;;;3.87;2.10;;;6.00;99.90;;;;;;5075151;28;20382;-69
2023/01/14 04:03:14;;;;;;;2.03;1.37;;;6.00;99.90;;;;;;5074775;28;20761;-69
2023/01/14 04:05:40;;;;;;;5.00;1.47;;;6.10;99.90;;;;;;5074911;28;20775;-69
2023/01/14 04:08:07;;;;;;;3.37;1.20;;;6.10;99.90;;;;;;5074603;28;20495;-69
2023/01/14 04:10:33;;;;;;;2.70;1.30;;;6.20;99.90;;;;;;5074860;28;20781;-70
2023/01/14 04:15:43;;;;;;;2.73;1.33;;;6.20;99.90;;;;;;5074837;28;20384;-69
2023/01/14 04:18:08;;;;;;;5.83;1.90;;;6.20;99.90;;;;;;5074132;28;20413;-69
2023/01/14 04:20:34;;;;;;;3.57;1.70;;;6.20;99.90;;;;;;5072946;28;20177;-69
2023/01/14 04:22:59;;;;;;;3.60;1.53;;;6.20;99.90;;;;;;5064077;28;20779;-69
2023/01/14 04:25:25;;;;;;;3.10;1.33;;;6.20;99.90;;;;;;5054343;28;20630;-69
2023/01/14 04:27:50;;;;;;;3.53;1.73;;;6.30;99.90;;;;;;5054150;28;20166;-69
2023/01/14 04:30:16;;;;;;;6.83;1.40;;;6.30;99.90;;;;;;5054287;28;20166;-69
2023/01/14 04:32:42;;;;;;;2.23;1.13;;;6.30;99.90;;;;;;5054310;28;20166;-69
2023/01/14 04:35:08;;;;;;;6.70;1.60;;;6.40;99.90;;;;;;5053600;28;20163;-70
2023/01/14 04:37:34;;;;;;;5.20;1.30;;;6.40;99.90;;;;;;5053172;28;20180;-70
2023/01/14 04:39:59;;;;;;;4.63;1.67;;;6.60;99.90;;;;;;5101881;22;20859;-71
2023/01/14 04:42:27;;;;;;;6.17;2.53;;;6.60;99.90;;;;;;5094017;28;20197;-71
2023/01/14 04:45:01;;;;;;;8.17;1.90;;;6.60;99.90;;;;;;5093617;28;20179;-70
2023/01/14 04:47:27;;;;;;;4.40;1.40;;;6.60;99.90;;;;;;5092589;28;20384;-70
2023/01/14 04:49:53;;;;;;;3.77;1.50;;;6.60;99.90;;;;;;5106482;28;20501;-69
2023/01/14 04:52:19;;;;;;;3.60;1.20;;;6.70;99.90;;;;;;5113704;28;20514;-68
2023/01/14 04:54:45;;;;;;;4.10;2.13;;;6.80;99.90;;;;;;5113440;28;20510;-70
2023/01/14 04:57:11;;;;;;;4.20;1.43;;;6.80;99.90;;;;;;5084193;28;20427;-71
2023/01/14 04:59:37;;;;;;;5.60;1.60;;;6.70;99.90;;;;;;5073147;28;20619;-70
2023/01/14 05:02:02;;;;;;;4.23;1.20;;;6.80;99.90;;;;;;5073238;28;20199;-70
2023/01/14 05:04:29;;;;;;;6.03;1.43;;;6.70;99.90;;;;;;5073586;28;20238;-71
2023/01/14 05:06:54;;;;;;;5.93;1.33;;;6.60;99.90;;;;;;5055590;28;20170;-69
2023/01/14 05:09:20;;;;;;;5.17;1.20;;;6.80;99.90;;;;;;5081603;28;20427;-70
2023/01/14 05:11:45;;;;;;;3.07;1.10;;;6.70;99.90;;;;;;5092959;28;20585;-70
2023/01/14 05:14:11;;;;;;;5.77;1.63;;;6.70;99.90;;;;;;5093132;28;20185;-70
2023/01/14 05:16:36;;;;;;;3.03;1.17;;;6.70;99.90;;;;;;5093659;28;20699;-70
2023/01/14 05:19:02;;;;;;;4.30;1.53;;;6.60;99.90;;;;;;5093018;28;20192;-71
2023/01/14 05:21:28;;;;;;;2.60;1.23;;;6.60;99.90;;;;;;5074757;28;20648;-71
2023/01/14 05:23:53;;;;;;;3.87;1.30;;;6.60;99.90;;;;;;5092891;28;20212;-70
2023/01/14 05:26:19;;;;;;;3.77;1.70;;;6.70;99.90;;;;;;5067802;28;20182;-71
2023/01/14 05:28:45;;;;;;;3.87;1.47;;;6.70;99.90;;;;;;5072538;28;20272;-70
2023/01/14 05:31:10;;;;;;;3.03;1.47;;;6.50;99.90;;;;;;5072924;28;20168;-70
2023/01/14 05:33:36;;;;;;;4.53;1.60;;;6.50;99.90;;;;;;5072812;28;20190;-69
2023/01/14 05:36:02;;;;;;;5.10;1.27;;;6.50;99.90;;;;;;5072934;28;20174;-70
2023/01/14 05:38:28;;;;;;;5.57;1.17;;;6.50;99.90;;;;;;5072370;28;20409;-69
2023/01/14 05:40:54;;;;;;;8.10;1.97;;;6.40;99.90;;;;;;5073014;28;20405;-70
2023/01/14 05:46:12;;;;;;;3.67;1.47;;;6.40;99.90;;;;;;5073203;28;20380;-71
2023/01/14 05:48:38;;;;;;;2.33;0.97;;;6.40;99.90;;;;;;5054372;28;20408;-70
2023/01/14 05:51:04;;;;;;;3.70;1.40;;;6.40;99.90;;;;;;5072406;28;20939;-70
2023/01/14 05:53:32;;;;;;;4.00;1.40;;;6.40;99.90;;;;;;5072404;28;20189;-70
2023/01/14 05:55:58;;;;;;;2.80;1.50;;;6.30;99.90;;;;;;5072758;28;20404;-70
2023/01/14 05:58:25;;;;;;;7.70;3.27;;;6.20;99.90;;;;;;5077089;28;20396;-71
2023/01/14 06:06:24;;;;;;;6.83;1.43;;;6.20;99.90;;;;;;5079400;28;20413;-70
2023/01/14 06:09:12;;;;;;;5.47;1.70;;;6.10;99.90;;;;;;5079045;28;20427;-70
2023/01/14 06:14:39;;;;;;;6.10;1.80;;;6.20;99.90;;;;;;5036322;28;20523;-70
2023/01/14 06:17:08;;;;;;;5.30;2.53;;;6.10;99.90;;;;;;5070109;28;20424;-70
2023/01/14 06:19:34;;;;;;;5.60;2.00;;;6.00;99.90;;;;;;5078888;28;20186;-70
2023/01/14 06:21:59;;;;;;;3.13;2.00;;;5.90;99.90;;;;;;5079126;28;20429;-70
2023/01/14 06:24:25;;;;;;;3.63;1.83;;;5.90;99.90;;;;;;5079877;28;20196;-69
2023/01/14 06:26:51;;;;;;;5.53;1.43;;;5.90;99.90;;;;;;5091446;28;20165;-71
2023/01/14 06:29:16;;;;;;;6.73;1.93;;;5.80;99.90;;;;;;5099640;28;20541;-71
2023/01/14 06:31:42;;;;;;;2.30;1.30;;;5.80;99.90;;;;;;5100211;28;20656;-71
2023/01/14 06:34:08;;;;;;;4.73;1.60;;;5.80;99.90;;;;;;5099898;28;20315;-71
2023/01/14 06:36:34;;;;;;;3.23;1.57;;;5.90;99.90;;;;;;5099378;28;20166;-71
2023/01/14 06:39:00;;;;;;;4.07;2.03;;;6.00;99.90;;;;;;5099399;28;20504;-70
2023/01/14 06:41:26;;;;;;;6.70;2.10;;;6.00;99.90;;;;;;5098860;28;20482;-70
2023/01/14 06:43:52;;;;;;;3.43;1.40;;;6.00;99.90;;;;;;5097510;28;20517;-70
2023/01/14 06:46:17;;;;;;;2.90;1.40;;;6.00;99.90;;;;;;5102054;28;20173;-70
2023/01/14 06:48:44;;;;;;;4.43;1.47;;;5.90;99.90;;;;;;5100399;28;20497;-71
2023/01/14 06:51:15;;;;;;;3.70;1.67;;;6.00;99.90;;;;;;5101327;28;20184;-69
2023/01/14 06:53:42;;;;;;;5.37;1.40;;;6.00;99.90;;;;;;5100426;28;20435;-71
2023/01/14 06:56:13;;;;;;;4.20;1.77;;;6.10;99.90;;;;;;5097664;28;20415;-71
2023/01/14 06:58:39;;;;;;;6.33;1.80;;;6.20;99.90;;;;;;5080055;28;20408;-71
2023/01/14 07:01:05;;;;;;;6.33;2.27;;;6.30;99.90;;;;;;5080320;28;20765;-71
2023/01/14 07:03:31;;;;;;;3.40;1.87;;;6.30;99.90;;;;;;5098207;28;20407;-71
2023/01/14 07:05:58;;;;;;;5.03;2.23;;;6.40;99.90;;;;;;5099104;28;20458;-70
2023/01/14 07:08:24;;;;;;;5.03;2.17;;;6.40;99.90;;;;;;5097743;28;20173;-72
2023/01/14 07:10:50;;;;;;;3.30;1.97;;;6.40;99.90;;;;;;5094749;28;20761;-71
2023/01/14 07:13:20;;;;;;;6.90;2.37;;;6.40;99.90;;;;;;5094987;28;20190;-70
2023/01/14 07:15:47;;;;;;;4.50;1.90;;;6.40;99.90;;;;;;5096028;28;20396;-71
2023/01/14 07:18:13;;;;;;;3.03;1.70;;;6.50;99.90;;;;;;5095059;28;20410;-72
2023/01/14 07:20:40;;;;;;;4.73;1.83;;;6.60;99.90;;;;;;5095384;28;20419;-71
2023/01/14 07:23:06;;;;;;;6.60;1.90;;;6.70;99.90;;;;;;5095293;28;20689;-71
2023/01/14 07:25:31;;;;;;;4.60;2.13;;;6.70;99.90;;;;;;5095195;28;20412;-71
2023/01/14 07:27:57;;;;;;;4.10;2.20;;;6.70;99.90;;;;;;5095274;28;20404;-70
2023/01/14 07:30:22;;;;;;;8.07;2.33;;;6.70;99.90;;;;;;5095003;28;20691;-72
2023/01/14 07:32:48;;;;;;;4.77;1.90;;;6.80;99.90;;;;;;5095037;28;20173;-71
2023/01/14 07:35:14;;;;;;;3.00;1.77;;;6.70;99.90;;;;;;5095384;28;20617;-72
2023/01/14 07:37:40;;;;;;;4.70;1.93;;;6.70;99.90;;;;;;5076949;28;20171;-72
2023/01/14 07:40:06;;;;;;;5.43;1.60;;;6.80;99.90;;;;;;5094677;28;20209;-71
2023/01/14 07:42:32;;;;;;;3.10;1.70;;;6.80;99.90;;;;;;5094662;28;20167;-69
2023/01/14 07:44:57;;;;;;;9.80;2.10;;;6.80;99.90;;;;;;5075438;28;20433;-71
2023/01/14 07:47:23;;;;;;;7.37;1.60;;;7.00;99.90;;;;;;5095127;28;20223;-72
2023/01/14 07:49:48;;;;;;;5.80;2.13;;;7.10;99.90;;;;;;5095530;28;20190;-71
2023/01/14 07:52:14;;;;;;;4.73;2.30;;;7.10;99.90;;;;;;5077604;28;20169;-72
2023/01/14 07:54:40;;;;;;;7.53;2.43;;;7.10;99.90;;;;;;5076840;28;20202;-71
2023/01/14 07:57:11;;;;;;;4.43;2.43;;;7.10;99.90;;;;;;5095062;28;20565;-71
2023/01/14 07:59:38;;;;;;;7.43;2.13;;;7.20;99.90;;;;;;5094303;28;20417;-71
2023/01/14 08:02:05;;;;;;;5.90;1.90;;;7.20;99.90;;;;;;5094972;28;20434;-72
2023/01/14 08:04:31;;;;;;;4.70;2.10;;;7.30;99.90;;;;;;5076354;28;20405;-72
2023/01/14 08:06:58;;;;;;;9.13;2.57;;;7.30;99.90;;;;;;5094939;28;20404;-72
2023/01/14 08:09:24;;;;;;;5.93;2.50;;;7.40;99.90;;;;;;5094378;28;20456;-70
2023/01/14 08:11:50;;;;;;;9.03;3.07;;;7.50;99.90;;;;;;5094422;28;20409;-71
2023/01/14 08:14:15;;;;;;;6.13;2.20;;;7.50;99.90;;;;;;5075802;28;20548;-70
2023/01/14 08:16:41;;;;;;;4.13;2.20;;;7.60;99.90;;;;;;5094421;28;20221;-70
2023/01/14 08:19:07;;;;;;;5.33;2.20;;;7.60;99.90;;;;;;5094186;28;20301;-69
2023/01/14 08:21:32;;;;;;;8.70;2.33;;;7.70;99.90;;;;;;5094050;28;20532;-70
2023/01/14 08:23:58;;;;;;;4.00;1.93;;;7.70;99.90;;;;;;5075481;28;20170;-71
2023/01/14 08:26:23;;;;;;;5.27;2.37;;;7.80;99.90;;;;;;5093694;28;20251;-70
2023/01/14 08:28:49;;;;;;;8.53;2.70;;;7.90;99.90;;;;;;5093568;28;20214;-71
2023/01/14 08:31:16;;;;;;;6.00;2.30;;;7.90;99.90;;;;;;5094375;28;20356;-71
2023/01/14 08:33:43;;;;;;;7.00;2.30;;;7.90;99.90;;;;;;5093810;28;20190;-71
2023/01/14 08:36:16;;;;;;;6.20;2.30;;;8.00;99.90;;;;;;5093937;28;20442;-72
2023/01/14 08:38:44;;;;;;;8.63;2.60;;;8.10;99.90;;;;;;5094062;28;20476;-71
2023/01/14 08:41:12;;;;;;;4.97;2.17;;;8.10;99.90;;;;;;5075830;28;20475;-71
2023/01/14 08:43:39;;;;;;;8.70;2.03;;;8.30;99.90;;;;;;5092945;28;20422;-71
2023/01/14 08:46:06;;;;;;;4.57;1.60;;;8.30;99.90;;;;;;5093507;28;20400;-71
2023/01/14 08:48:32;;;;;;;6.30;2.60;;;8.40;99.90;;;;;;5094530;28;20409;-72
2023/01/14 08:51:03;;;;;;;6.43;2.03;;;8.40;99.90;;;;;;5075738;28;20543;-71
2023/01/14 08:53:30;;;;;;;6.00;2.10;;;8.30;99.90;;;;;;5096223;28;20689;-71
2023/01/14 08:55:57;;;;;;;8.07;1.93;;;8.30;99.90;;;;;;5093846;28;20559;-70
2023/01/14 08:58:23;;;;;;;8.07;2.53;;;8.40;99.90;;;;;;5093134;28;20437;-70
2023/01/14 09:00:49;;;;;;;5.63;1.83;;;8.40;99.90;;;;;;5092408;28;20781;-71
2023/01/14 09:03:14;;;;;;;7.10;2.60;;;8.50;99.90;;;;;;5091952;28;20433;-71
2023/01/14 09:05:40;;;;;;;5.10;2.13;;;8.50;99.90;;;;;;5093111;28;20168;-70
2023/01/14 09:19:08;;;;;;;4.53;1.97;;;8.90;99.90;;;;;;5093028;28;20417;-70
2023/01/14 09:21:33;;;;;;;8.47;2.00;;;8.90;99.90;;;;;;5093762;28;20778;-71
2023/01/14 09:23:59;;;;;;;3.20;1.50;;;8.90;99.90;;;;;;5076234;28;20252;-72
2023/01/14 09:26:24;;;;;;;6.17;1.80;;;8.90;99.90;;;;;;5092730;28;20177;-71
2023/01/14 09:28:51;;;;;;;3.43;1.67;;;9.00;99.90;;;;;;5092709;28;20189;-70
2023/01/14 09:31:17;;;;;;;5.60;2.03;;;9.00;99.90;;;;;;5092799;28;20252;-71
2023/01/14 09:33:42;;;;;;;2.57;1.50;;;9.20;99.90;;;;;;5092259;28;20482;-71
2023/01/14 09:36:08;;;;;;;4.10;1.80;;;9.10;99.90;;;;;;5074723;28;20541;-71
2023/01/14 09:38:33;;;;;;;5.10;1.83;;;9.20;99.90;;;;;;5074705;28;20650;-70
2023/01/14 09:40:59;;;;;;;4.67;1.50;;;9.20;99.90;;;;;;5092595;28;20156;-71
2023/01/14 09:43:29;;;;;;;6.83;2.20;;;9.30;99.90;;;;;;5092706;28;20168;-70
2023/01/14 09:46:00;;;;;;;7.60;2.07;;;9.40;99.90;;;;;;5092286;28;20166;-70
2023/01/14 09:48:30;;;;;;;5.17;1.70;;;9.30;99.90;;;;;;5074124;28;20830;-70
2023/01/14 09:51:34;;;;;;;3.20;1.67;;;9.50;99.90;;;;;;5092512;28;20906;-71
2023/01/14 09:54:14;;;;;;;2.30;1.37;;;9.50;99.90;;;;;;5092374;28;21011;-70
2023/01/14 09:56:57;;;;;;;6.73;1.70;;;9.50;99.90;;;;;;5092008;28;20961;-70
2023/01/14 10:00:05;;;;;;;6.20;1.90;;;9.50;99.90;;;;;;5074302;28;20928;-71
2023/01/14 10:02:39;;;;;;;7.47;1.80;;;9.60;99.90;;;;;;5072636;28;20374;-70
2023/01/14 10:05:21;;;;;;;5.00;1.60;;;9.70;99.90;;;;;;5072513;28;20385;-70
2023/01/14 10:07:47;;;;;;;2.27;1.30;;;9.90;99.90;;;;;;5072751;28;20414;-70
2023/01/14 10:10:39;;;;;;;4.70;1.50;;;10.00;99.90;;;;;;5071775;28;20468;-70
2023/01/14 10:13:12;;;;;;;4.20;1.53;;;10.20;99.90;;;;;;5072391;28;20476;-70
2023/01/14 10:15:53;;;;;;;2.27;1.30;;;10.00;99.90;;;;;;5072237;28;20890;-70
2023/01/14 10:18:27;;;;;;;2.67;1.20;;;10.10;99.90;;;;;;5072459;28;20779;-70
2023/01/14 10:20:58;;;;;;;2.90;1.60;;;10.10;99.90;;;;;;5072610;28;20471;-71
2023/01/14 10:23:29;;;;;;;3.70;1.50;;;10.00;99.90;;;;;;5073539;28;20410;-70
2023/01/14 10:25:56;;;;;;;5.37;1.37;;;10.30;99.90;;;;;;5073098;28;20194;-71
2023/01/14 10:28:27;;;;;;;2.87;1.33;;;10.40;99.90;;;;;;5075884;28;20868;-72
2023/01/14 10:30:53;;;;;;;4.30;1.50;;;10.30;99.90;;;;;;5074550;28;20418;-72
2023/01/14 10:33:21;;;;;;;5.73;1.93;;;10.40;99.90;;;;;;5072729;28;20865;-72
2023/01/14 10:35:56;;;;;;;4.10;2.00;;;10.30;99.90;;;;;;5054158;28;20484;-72
2023/01/14 10:38:24;;;;;;;4.37;1.70;;;10.20;99.90;;;;;;5086104;28;20449;-72
2023/01/14 10:40:53;;;;;;;2.50;1.10;;;10.10;99.90;;;;;;5093685;28;20411;-72
2023/01/14 10:43:29;;;;;;;1.87;1.20;;;10.10;99.90;;;;;;5092968;28;20404;-72
2023/01/14 10:45:54;;;;;;;4.70;1.40;;;10.30;99.90;;;;;;5096714;28;20376;-72
2023/01/14 10:48:21;;;;;;;3.53;1.83;;;10.40;99.90;;;;;;5096912;28;20470;-73
2023/01/14 10:50:47;;;;;;;3.23;1.47;;;10.40;99.90;;;;;;5098022;28;20193;-75
2023/01/14 10:53:19;;;;;;;7.37;2.20;;;10.30;99.90;;;;;;5082740;28;20447;-73
2023/01/14 10:56:03;;;;;;;3.37;1.70;;;10.40;99.90;;;;;;5080888;28;20412;-75
2023/01/14 10:58:53;;;;;;;5.50;2.20;;;10.30;99.90;;;;;;5082157;28;20777;-74
2023/01/14 11:01:20;;;;;;;3.00;1.30;;;10.50;99.90;;;;;;5100704;28;20387;-73
2023/01/14 11:03:48;;;;;;;2.60;1.40;;;10.50;99.90;;;;;;5103561;28;20417;-73
2023/01/14 11:06:16;;;;;;;4.20;1.40;;;10.50;99.90;;;;;;5122312;28;20411;-73
2023/01/14 11:08:47;;;;;;;2.63;1.10;;;10.60;99.90;;;;;;5091756;28;20467;-71
2023/01/14 11:11:22;;;;;;;3.17;1.23;;;10.70;99.90;;;;;;5078838;28;20389;-72
2023/01/14 11:13:53;;;;;;;2.97;1.20;;;10.60;99.90;;;;;;5060962;28;20542;-72
2023/01/14 11:16:24;;;;;;;3.57;1.10;;;10.50;99.90;;;;;;5079761;28;20880;-72
2023/01/14 11:18:53;;;;;;;2.03;1.20;;;10.60;99.90;;;;;;5078023;28;20527;-72
2023/01/14 11:21:21;;;;;;;1.13;1.03;;;10.60;99.90;;;;;;5077581;28;20399;-72
2023/01/14 11:24:08;;;;;;;4.37;1.33;;;10.70;99.90;;;;;;5056949;28;20440;-72
2023/01/14 11:26:36;;;;;;;2.70;1.23;;;10.70;99.90;;;;;;5074330;28;20515;-72
2023/01/14 11:29:26;;;;;;;1.60;1.03;;;10.70;99.90;;;;;;5077705;28;20475;-73
2023/01/14 11:32:03;;;;;;;5.00;1.37;;;10.90;99.90;;;;;;5058501;28;20453;-73
2023/01/14 11:34:38;;;;;;;3.73;1.30;;;11.00;99.90;;;;;;5057792;28;20442;-72
2023/01/14 11:37:20;;;;;;;3.57;1.10;;;11.00;99.90;;;;;;5077555;28;20408;-71
2023/01/14 11:39:57;;;;;;;4.70;1.20;;;11.00;99.90;;;;;;5076856;28;20439;-70
2023/01/14 11:42:44;;;;;;;1.60;1.03;;;10.80;99.90;;;;;;5076720;28;20422;-71
2023/01/14 11:45:12;;;;;;;1.30;1.00;;;10.80;99.90;;;;;;5077899;28;20729;-71
2023/01/14 11:47:53;;;;;;;1.20;0.80;;;11.00;99.90;;;;;;5077307;28;20404;-71
2023/01/14 11:50:19;;;;;;;2.13;1.00;;;11.00;99.90;;;;;;5077415;28;20530;-71
2023/01/14 11:53:15;;;;;;;2.07;1.27;;;11.00;99.90;;;;;;5077468;28;20436;-71
2023/01/14 11:55:41;;;;;;;3.20;1.20;;;11.20;99.90;;;;;;5087140;28;20196;-72
2023/01/14 11:58:25;;;;;;;1.70;1.10;;;11.20;99.90;;;;;;5101779;28;20425;-71
2023/01/14 12:00:57;;;;;;;1.43;0.90;;;11.10;99.90;;;;;;5098507;28;20372;-72
2023/01/14 12:04:01;;;;;;;2.13;1.13;;;11.10;99.90;;;;;;5097798;28;20399;-70
2023/01/14 12:06:32;;;;;;;2.03;1.20;;;11.00;99.90;;;;;;5079844;28;20533;-72
2023/01/14 12:09:04;;;;;;;1.80;1.00;;;10.90;99.90;;;;;;5098491;28;20451;-71
2023/01/14 12:11:42;;;;;;;1.53;1.00;;;10.90;99.90;;;;;;5098160;28;20941;-71
2023/01/14 12:17:18;;;;;;;3.33;1.43;;;10.90;99.90;;;;;;5097138;28;20378;-72
2023/01/14 12:19:53;;;;;;;4.23;1.70;;;11.00;99.90;;;;;;5099555;28;20414;-71
2023/01/14 12:22:31;;;;;;;1.93;1.10;;;10.90;99.90;;;;;;5102280;28;20483;-71
2023/01/14 12:25:09;;;;;;;2.47;1.00;;;10.90;99.90;;;;;;5081710;28;20482;-70
2023/01/14 12:28:01;;;;;;;2.30;0.90;;;11.10;99.90;;;;;;5064500;28;20418;-71
2023/01/14 12:30:38;;;;;;;4.87;1.07;;;10.90;99.90;;;;;;5082649;28;20420;-72
2023/01/14 12:33:14;;;;;;;3.97;1.40;;;11.00;99.90;;;;;;5082123;28;20453;-71
2023/01/14 12:36:17;;;;;;;3.60;1.30;;;11.00;99.90;;;;;;5082241;28;20382;-71
2023/01/14 12:47:28;;;;;;;3.00;1.37;;;11.00;99.90;;;;;;5077258;28;20449;-72
2023/01/14 12:49:54;;;;;;;3.73;0.90;;;10.90;99.90;;;;;;5075609;28;20467;-72
2023/01/14 12:52:27;;;;;;;4.17;1.00;;;10.80;99.90;;;;;;5075986;28;20219;-71
2023/01/14 12:54:53;;;;;;;1.63;1.27;;;10.70;99.90;;;;;;5077972;28;20476;-71
2023/01/14 12:57:21;;;;;;;3.20;2.37;;;10.70;99.90;;;;;;5097981;28;20482;-72
2023/01/14 12:59:58;;;;;;;1.60;1.10;;;10.80;99.90;;;;;;5097754;28;20426;-71
2023/01/14 13:02:35;;;;;;;2.10;1.00;;;10.80;99.90;;;;;;5078419;28;20838;-72
2023/01/14 13:05:10;;;;;;;5.53;1.50;;;10.90;99.90;;;;;;5096113;28;20430;-72
2023/01/14 13:07:58;;;;;;;2.63;1.63;;;11.00;99.90;;;;;;5095715;28;20407;-71
2023/01/14 13:10:38;;;;;;;5.43;1.20;;;11.00;99.90;;;;;;5095703;28;20439;-72
2023/01/14 13:13:17;;;;;;;2.97;1.40;;;11.00;99.90;;;;;;5077090;28;20411;-71
2023/01/14 13:15:43;;;;;;;2.83;1.20;;;10.80;99.90;;;;;;5094927;28;20384;-71
2023/01/14 13:18:33;;;;;;;2.30;1.20;;;10.70;99.90;;;;;;5095587;28;20403;-71
2023/01/14 13:21:07;;;;;;;1.87;1.10;;;11.00;99.90;;;;;;5077423;28;20165;-70
2023/01/14 13:23:36;;;;;;;1.30;1.07;;;11.10;99.90;;;;;;5095082;28;20391;-71
2023/01/14 13:26:02;;;;;;;3.27;1.33;;;11.00;99.90;;;;;;5094158;28;20449;-70
2023/01/14 13:28:28;;;;;;;1.83;1.03;;;11.10;99.90;;;;;;5095338;28;20712;-70
2023/01/14 13:31:01;;;;;;;1.77;1.20;;;11.20;99.90;;;;;;5094720;28;20400;-70
2023/01/14 13:33:39;;;;;;;1.93;1.20;;;11.00;99.90;;;;;;5093965;28;20262;-70
2023/01/14 13:36:11;;;;;;;2.60;1.40;;;11.20;99.90;;;;;;5058042;28;20456;-70
2023/01/14 13:38:48;;;;;;;2.60;1.13;;;11.40;99.90;;;;;;5056779;28;20416;-71
2023/01/14 13:41:38;;;;;;;1.87;1.40;;;11.30;99.90;;;;;;5057824;28;20417;-71
2023/01/14 13:44:06;;;;;;;2.93;1.70;;;11.20;99.90;;;;;;5063180;28;20534;-71
2023/01/14 13:46:38;;;;;;;2.50;1.57;;;11.30;99.90;;;;;;5076253;28;20407;-71
2023/01/14 13:49:16;;;;;;;2.57;1.43;;;11.20;99.90;;;;;;5057276;28;20419;-69
2023/01/14 13:51:46;;;;;;;2.87;1.20;;;11.20;99.90;;;;;;5075243;28;20794;-70
2023/01/14 13:54:12;;;;;;;5.53;1.43;;;11.10;99.90;;;;;;5056253;28;20460;-71
2023/01/14 13:57:01;;;;;;;2.10;1.40;;;11.20;99.90;;;;;;5074068;28;20900;-71